createdAt,value
2023-01-08T00:03:09.618Z,-1.8
2023-01-08T00:08:32.912Z,-1.7
2023-01-08T00:13:40.514Z,-1.7
2023-01-08T00:19:04.084Z,-1.7
2023-01-08T00:24:26.396Z,-1.8
2023-01-08T00:29:33.383Z,-1.8
2023-01-08T00:34:57.487Z,-1.9
2023-01-08T00:40:20.151Z,-1.9
2023-01-08T00:45:42.742Z,-1.9
2023-01-08T00:51:07.136Z,-1.9
2023-01-08T00:56:14.505Z,-1.9
2023-01-08T01:01:21.154Z,-1.9
2023-01-08T01:06:46.222Z,-2.1
2023-01-08T01:12:08.879Z,-1.9
2023-01-08T01:17:32.490Z,-1.8
2023-01-08T01:22:40.803Z,-1.8
2023-01-08T01:28:03.848Z,-2
2023-01-08T01:33:26.699Z,-2
2023-01-08T01:38:35.418Z,-1.9
2023-01-08T01:43:57.898Z,-2.2
2023-01-08T01:49:04.864Z,-2.1
2023-01-08T01:54:28.839Z,-1.9
2023-01-08T01:59:51.609Z,-1.9
2023-01-08T02:05:16.297Z,-2.1
2023-01-08T02:10:40.229Z,-2.2
2023-01-08T02:16:03.285Z,-2.3
2023-01-08T02:21:26.303Z,-2.2
2023-01-08T02:26:34.337Z,-2.1
2023-01-08T02:31:56.977Z,-2.1
2023-01-08T02:37:19.688Z,-2.2
2023-01-08T02:42:27.719Z,-2.8
2023-01-08T02:47:35.405Z,-2.8
2023-01-08T02:52:58.311Z,-2.9
2023-01-08T02:58:22.101Z,-3.1
2023-01-08T03:03:46.082Z,-3.1
2023-01-08T03:09:09.308Z,-3.4
2023-01-08T03:14:32.952Z,-3.4
2023-01-08T03:19:57.884Z,-3.1
2023-01-08T03:25:21.051Z,-2.9
2023-01-08T03:30:29.468Z,-3
2023-01-08T03:35:52.405Z,-2.9
2023-01-08T03:41:14.173Z,-2.7
2023-01-08T03:46:22.519Z,-2.6
2023-01-08T03:51:44.945Z,-2.4
2023-01-08T03:57:08.088Z,-2.8
2023-01-08T04:02:32.380Z,-2.8
2023-01-08T04:07:55.805Z,-2.8
2023-01-08T04:13:18.053Z,-2.7
2023-01-08T04:18:42.752Z,-2.8
2023-01-08T04:24:05.187Z,-2.8
2023-01-08T04:29:11.521Z,-2.7
2023-01-08T04:34:35.158Z,-2.8
2023-01-08T04:39:57.970Z,-3.1
2023-01-08T04:45:04.392Z,-3.3
2023-01-08T04:50:28.061Z,-3.4
2023-01-08T04:55:50.861Z,-3.4
2023-01-08T05:01:14.002Z,-3.3
2023-01-08T05:06:40.778Z,-3.3
2023-01-08T05:12:04.140Z,-3.3
2023-01-08T05:17:12.213Z,-3.2
2023-01-08T05:22:37.724Z,-3.4
2023-01-08T05:28:01.194Z,-3.1
2023-01-08T05:33:24.388Z,-3.2
2023-01-08T05:38:32.507Z,-3.3
2023-01-08T05:43:55.356Z,-3.1
2023-01-08T05:49:02.705Z,-3.7
2023-01-08T05:54:26.252Z,-3.6
2023-01-08T05:59:51.934Z,-3.6
2023-01-08T06:05:15.139Z,-3.4
2023-01-08T06:10:38.446Z,-3.6
2023-01-08T06:16:01.156Z,-3.6
2023-01-08T06:26:01.893Z,-3.6
2023-01-08T06:30:37.270Z,-3.4
2023-01-08T06:36:00.288Z,-3.4
2023-01-08T06:41:08.656Z,-3
2023-01-08T06:46:33.657Z,-2.7
2023-01-08T06:51:57.006Z,-2.3
2023-01-08T06:57:25.486Z,-2.4
2023-01-08T07:02:49.280Z,-2.3
2023-01-08T07:08:13.234Z,-2.1
2023-01-08T07:13:37.228Z,-1.6
2023-01-08T07:18:59.870Z,-1.3
2023-01-08T07:24:23.222Z,-1.1
2023-01-08T07:35:05.883Z,-0.7
2023-01-08T07:40:29.237Z,-0.3
2023-01-08T07:45:53.084Z,-0.4
2023-01-08T07:51:15.500Z,-0.3
2023-01-08T07:56:22.825Z,-0.3
2023-01-08T08:01:32.736Z,0.4
2023-01-08T08:06:57.206Z,0.4
2023-01-08T08:12:19.671Z,1.3
2023-01-08T08:17:43.736Z,1.5
2023-01-08T08:23:06.268Z,2.1
2023-01-08T08:28:29.162Z,2.6
2023-01-08T08:33:53.476Z,3.4
2023-01-08T08:39:15.775Z,3.3
2023-01-08T08:44:40.305Z,3.5
2023-01-08T08:50:05.095Z,3.9
2023-01-08T08:55:29.282Z,3.9
2023-01-08T09:00:52.257Z,4.3
2023-01-08T09:06:18.026Z,4.8
2023-01-08T09:11:40.774Z,5.3
2023-01-08T09:17:03.650Z,4.4
2023-01-08T09:22:26.811Z,4
2023-01-08T09:27:49.785Z,5.1
2023-01-08T09:33:12.743Z,6.3
2023-01-08T09:38:36.453Z,6.1
2023-01-08T09:43:47.537Z,6.6
2023-01-08T09:48:57.317Z,6.7
2023-01-08T09:54:21.083Z,7.3
2023-01-08T09:59:54.177Z,6.6
2023-01-08T10:05:18.605Z,8.1
2023-01-08T10:10:42.549Z,7.6
2023-01-08T10:16:05.181Z,8.3
2023-01-08T10:21:28.829Z,8.6
2023-01-08T10:26:53.721Z,7.9
2023-01-08T10:32:01.377Z,7.3
2023-01-08T10:37:24.996Z,9.3
2023-01-08T10:42:50.682Z,9.7
2023-01-08T10:48:15.742Z,9.4
2023-01-08T10:53:38.062Z,9.7
2023-01-08T10:58:31.412Z,10.3
2023-01-08T11:03:39.576Z,10.7
2023-01-08T11:08:46.217Z,10.8
2023-01-08T11:14:09.504Z,11.3
2023-01-08T11:19:32.863Z,10.1
2023-01-08T11:24:55.085Z,11.3
2023-01-08T11:30:20.224Z,11
2023-01-08T11:35:43.354Z,11.6
2023-01-08T11:41:06.234Z,11.1
2023-01-08T11:46:32.110Z,10.9
2023-01-08T11:51:25.796Z,10.4
2023-01-08T11:56:32.464Z,11.1
2023-01-08T12:01:55.450Z,10.8
2023-01-08T12:07:18.158Z,11.3
2023-01-08T12:12:40.130Z,12
2023-01-08T12:17:47.733Z,11.2
2023-01-08T12:23:10.434Z,12.4
2023-01-08T12:29:01.649Z,13.1
2023-01-08T12:34:20.505Z,12
2023-01-08T12:39:43.136Z,12.6
2023-01-08T12:45:17.616Z,13
2023-01-08T12:50:39.935Z,13
2023-01-08T12:56:02.284Z,12.9
2023-01-08T13:01:25.383Z,13.1
2023-01-08T13:06:34.237Z,12.3
2023-01-08T13:11:56.887Z,12.3
2023-01-08T13:17:20.406Z,12.2
2023-01-08T13:22:28.023Z,12.1
2023-01-08T13:27:50.362Z,11.9
2023-01-08T13:32:41.294Z,12.7
2023-01-08T13:38:17.751Z,12.4
2023-01-08T13:43:44.213Z,12.3
2023-01-08T13:48:36.302Z,12.8
2023-01-08T13:53:43.633Z,12.3
2023-01-08T13:58:50.478Z,12.6
2023-01-08T14:03:58.798Z,12
2023-01-08T14:09:06.310Z,12.1
2023-01-08T14:14:29.356Z,12.1
2023-01-08T14:19:52.273Z,12
2023-01-08T14:25:15.372Z,11.6
2023-01-08T14:30:37.788Z,11.6
2023-01-08T14:36:00.920Z,10.9
2023-01-08T14:41:24.179Z,10.8
2023-01-08T14:46:40.856Z,10.5
2023-01-08T14:52:03.226Z,10.1
2023-01-08T14:57:26.237Z,9.4
2023-01-08T15:02:50.139Z,9.3
2023-01-08T15:08:14.543Z,9.1
2023-01-08T15:13:37.394Z,8.8
2023-01-08T15:19:00.224Z,8.4
2023-01-08T15:24:07.087Z,7.9
2023-01-08T15:29:30.196Z,8.1
2023-01-08T15:34:37.292Z,7.6
2023-01-08T15:39:16.045Z,7.1
2023-01-08T15:44:24.578Z,6.8
2023-01-08T15:49:32.245Z,6.6
2023-01-08T15:54:55.495Z,6.1
2023-01-08T16:00:18.392Z,5.9
2023-01-08T16:05:11.598Z,5.6
2023-01-08T16:15:11.049Z,5.6
2023-01-08T16:20:34.220Z,5.3
2023-01-08T16:25:56.670Z,5.3
2023-01-08T16:31:18.851Z,4.4
2023-01-08T16:36:44.708Z,4.1
2023-01-08T16:42:07.434Z,4.3
2023-01-08T16:47:14.545Z,4.3
2023-01-08T16:52:22.113Z,3.9
2023-01-08T16:57:29.281Z,3.9
2023-01-08T17:02:50.699Z,3.8
2023-01-08T17:08:01.294Z,3.3
2023-01-08T17:13:08.237Z,2.6
2023-01-08T17:18:31.111Z,2.7
2023-01-08T17:23:38.655Z,2.6
2023-01-08T17:28:45.970Z,2.5
2023-01-08T17:34:09.122Z,2.6
2023-01-08T17:39:34.545Z,1.9
2023-01-08T17:44:59.508Z,2
2023-01-08T17:50:22.373Z,1.8
2023-01-08T17:55:29.970Z,1.8
2023-01-08T18:00:53.329Z,1.9
2023-01-08T18:06:18.338Z,1.6
2023-01-08T18:11:41.852Z,1.7
2023-01-08T18:16:48.905Z,1.2
2023-01-08T18:21:56.415Z,1.3
2023-01-08T18:27:04.117Z,1.4
2023-01-08T18:32:26.176Z,1.3
2023-01-08T18:37:49.545Z,1.1
2023-01-08T18:42:56.905Z,1.2
2023-01-08T18:48:20.196Z,1
2023-01-08T18:53:27.823Z,0.8
2023-01-08T18:58:52.137Z,1.1
2023-01-08T19:04:00.661Z,1.6
2023-01-08T19:09:07.952Z,1.6
2023-01-08T19:14:17.454Z,1.4
2023-01-08T19:19:41.726Z,0.3
2023-01-08T19:24:49.363Z,0.1
2023-01-08T19:29:59.657Z,0.1
2023-01-08T19:35:26.243Z,-0.2
2023-01-08T19:40:49.208Z,-0.3
2023-01-08T19:45:56.714Z,-0.5
2023-01-08T19:51:22.289Z,-0.4
2023-01-08T19:56:49.107Z,-0.7
2023-01-08T20:02:01.831Z,-0.8
2023-01-08T20:07:16.468Z,-0.7
2023-01-08T20:12:46.948Z,-0.7
2023-01-08T20:18:04.432Z,-0.7
2023-01-08T20:23:34.370Z,-0.8
2023-01-08T20:28:43.956Z,-0.7
2023-01-08T20:39:01.002Z,-0.8
2023-01-08T20:44:23.318Z,-0.7
2023-01-08T20:49:54.187Z,0.1
2023-01-08T20:55:28.922Z,-0.3
2023-01-08T21:00:35.595Z,-0.3
2023-01-08T21:05:28.043Z,-0.3
2023-01-08T21:10:35.121Z,-0.4
2023-01-08T21:15:42.308Z,-0.4
2023-01-08T21:20:33.881Z,-0.4
2023-01-08T21:25:26.041Z,-0.5
2023-01-08T21:30:32.510Z,-0.4
2023-01-08T21:35:23.910Z,-0.3
2023-01-08T21:40:31.504Z,-0.3
2023-01-08T21:45:38.053Z,-0.3
2023-01-08T21:50:45.824Z,-0.1
2023-01-08T21:55:54.889Z,-0.1
2023-01-08T22:01:01.567Z,-0.3
2023-01-08T22:06:08.971Z,-0.5
2023-01-08T22:11:16.542Z,-0.7
2023-01-08T22:16:39.687Z,-0.8
2023-01-08T22:32:17.037Z,-1
2023-01-08T22:42:51.629Z,-0.8
2023-01-08T22:53:21.644Z,-1.1
2023-01-08T22:58:44.428Z,-1.1
2023-01-08T23:04:07.110Z,-1.1
2023-01-08T23:09:14.645Z,-1.1
2023-01-08T23:14:06.253Z,-1.1
2023-01-08T23:19:04.978Z,-1.1
2023-01-08T23:24:27.703Z,-1.2
2023-01-08T23:29:50.894Z,-1.1
2023-01-08T23:35:13.391Z,-1.4
2023-01-08T23:40:54.032Z,-1.4
2023-01-08T23:46:01.837Z,-1.4
2023-01-08T23:51:24.224Z,-1.4
2023-01-08T23:56:30.704Z,-1.5
